Time;durP1;ratioP1;P1;durP2;ratioP2;P2;SDS_P1;SDS_P2;PMS_P1;PMS_P2;Temp;Humidity;BMP_temperature;BMP_pressure;BME280_temperature;BME280_humidity;BME280_pressure;Samples;Min_cycle;Max_cycle;Signal;HPM_P1;HPM_P2
2021/12/25 00:00:45;;;;;;;0.82;0.52;;;;;;;-2.01;100.00;100682.25;6223888;28;20057;-77
2021/12/25 00:03:50;;;;;;;2.72;1.60;;;;;;;-2.07;100.00;100690.84;6231271;28;20420;-78
2021/12/25 00:06:51;;;;;;;0.32;0.32;;;;;;;-2.09;100.00;100682.28;6225172;28;20057;-77
2021/12/25 00:09:52;;;;;;;0.57;0.32;;;;;;;-2.21;100.00;100684.03;6225010;28;20060;-77
2021/12/25 00:12:54;;;;;;;0.20;0.20;;;;;;;-2.26;100.00;100696.06;6224472;28;20061;-77
2021/12/25 00:15:56;;;;;;;0.35;0.28;;;;;;;-2.32;100.00;100692.63;6224861;28;20046;-77
2021/12/25 00:18:58;;;;;;;0.50;0.20;;;;;;;-2.33;100.00;100701.19;6224966;28;20512;-77
2021/12/25 00:22:00;;;;;;;0.22;0.22;;;;;;;-2.38;100.00;100694.34;6224415;28;20049;-78
2021/12/25 00:25:01;;;;;;;0.10;0.10;;;;;;;-2.43;100.00;100709.78;6224884;28;20057;-77
2021/12/25 00:28:17;;;;;;;2.03;0.57;;;;;;;-2.42;100.00;100715.78;6224266;28;20057;-77
2021/12/25 00:31:41;;;;;;;2.67;0.93;;;;;;;-2.38;100.00;100722.66;6224354;28;20413;-77
2021/12/25 00:34:43;;;;;;;3.33;1.73;;;;;;;-2.42;100.00;100720.94;6224384;28;20050;-77
2021/12/25 00:37:45;;;;;;;0.63;0.32;;;;;;;-2.50;100.00;100725.22;6224543;28;20141;-77
2021/12/25 00:40:47;;;;;;;1.40;0.75;;;;;;;-2.47;100.00;100727.81;6224266;28;20057;-77
2021/12/25 00:43:52;;;;;;;1.35;0.82;;;;;;;-2.47;100.00;100730.38;6224256;28;20061;-77
2021/12/25 00:46:53;;;;;;;1.23;0.93;;;;;;;-2.50;100.00;100744.09;6224092;28;20064;-77
2021/12/25 00:49:56;;;;;;;0.55;0.55;;;;;;;-2.53;100.00;100745.81;6224379;28;20050;-77
2021/12/25 00:52:57;;;;;;;3.03;0.73;;;;;;;-2.64;100.00;100756.09;6224160;28;20045;-77
2021/12/25 00:55:59;;;;;;;0.93;0.68;;;;;;;-2.78;100.00;100758.66;6224106;28;20057;-77
2021/12/25 00:59:00;;;;;;;0.90;0.50;;;;;;;-2.74;100.00;100755.22;6224520;28;20057;-77
2021/12/25 01:02:02;;;;;;;1.42;0.95;;;;;;;-2.81;100.00;100764.66;6225555;28;20448;-77
2021/12/25 01:05:05;;;;;;;0.77;0.55;;;;;;;-2.81;100.00;100768.97;6249023;28;20056;-77
2021/12/25 01:08:07;;;;;;;0.90;0.82;;;;;;;-2.84;100.00;100772.38;6247920;28;20053;-77
2021/12/25 01:11:09;;;;;;;0.10;0.10;;;;;;;-2.89;100.00;100771.50;6252834;28;20045;-77
2021/12/25 01:14:20;;;;;;;0.75;0.40;;;;;;;-2.92;100.00;100776.63;6249732;28;20057;-77
2021/12/25 01:17:45;;;;;;;0.25;0.25;;;;;;;-2.94;100.00;100780.06;6244590;28;20057;-77
2021/12/25 01:21:29;;;;;;;2.25;0.80;;;;;;;-2.96;100.00;100779.19;6252814;28;20099;-77
2021/12/25 01:24:46;;;;;;;1.48;1.00;;;;;;;-3.06;100.00;100779.16;6253038;28;20087;-77
2021/12/25 01:31:12;;;;;;;0.70;0.57;;;;;;;-3.13;100.00;100789.44;6253656;28;20057;-77
2021/12/25 01:34:53;;;;;;;3.33;1.63;;;;;;;-3.14;100.00;100788.56;6227997;28;20053;-77
2021/12/25 01:38:07;;;;;;;0.65;0.65;;;;;;;-3.25;100.00;100786.81;6227906;28;20054;-77
2021/12/25 01:41:17;;;;;;;5.32;3.05;;;;;;;-3.30;100.00;100783.38;6246787;28;20053;-77
2021/12/25 01:47:49;;;;;;;;;;;;;;;-3.34;100.00;100795.34;6253858;28;20054;-77
2021/12/25 01:50:51;;;;;;;0.80;0.68;;;;;;;-3.40;100.00;100788.50;6252988;28;19928;-77
2021/12/25 01:53:53;;;;;;;0.10;0.10;;;;;;;-3.46;100.00;100800.44;6253407;28;20053;-77
2021/12/25 01:56:55;;;;;;;1.23;1.00;;;;;;;-3.47;100.00;100794.44;6253111;28;20056;-78
2021/12/25 01:59:57;;;;;;;0.38;0.38;;;;;;;-3.52;100.00;100808.13;6252799;28;20049;-78
2021/12/25 02:02:59;;;;;;;0.25;0.25;;;;;;;-3.54;100.00;100815.81;6251111;28;20060;-78
2021/12/25 02:06:01;;;;;;;0.10;0.10;;;;;;;-3.51;100.00;100807.25;6251450;28;20064;-78
2021/12/25 02:09:04;;;;;;;0.20;0.20;;;;;;;-3.53;100.00;100817.53;6251815;28;20050;-77
2021/12/25 02:12:07;;;;;;;0.47;0.20;;;;;;;-3.59;100.00;100818.38;6251176;28;20046;-78
2021/12/25 02:15:15;;;;;;;0.68;0.25;;;;;;;-3.63;100.00;100816.63;6251522;28;20045;-78
2021/12/25 02:18:23;;;;;;;1.00;0.25;;;;;;;-3.71;100.00;100815.72;6251345;28;20140;-77
2021/12/25 02:21:34;;;;;;;0.10;0.10;;;;;;;-3.75;100.00;100811.41;6250160;28;20053;-78
2021/12/25 02:24:36;;;;;;;0.05;0.05;;;;;;;-3.74;100.00;100809.69;6251289;28;20042;-78
2021/12/25 02:27:37;;;;;;;0.10;0.10;;;;;;;-3.79;100.00;100799.41;6250858;28;20050;-78
2021/12/25 02:30:40;;;;;;;0.10;0.10;;;;;;;-3.79;100.00;100808.81;6250879;28;20056;-77
2021/12/25 02:33:41;;;;;;;0.10;0.10;;;;;;;-3.85;100.00;100809.66;6249271;28;20053;-78
2021/12/25 02:36:44;;;;;;;0.08;0.08;;;;;;;-3.94;100.00;100807.03;6250687;28;20045;-77
2021/12/25 02:39:46;;;;;;;0.10;0.10;;;;;;;-3.92;100.00;100810.44;6250870;28;20424;-77
2021/12/25 02:42:47;;;;;;;0.10;0.10;;;;;;;-3.93;100.00;100821.56;6250976;28;20060;-77
2021/12/25 02:45:49;;;;;;;1.95;0.30;;;;;;;-3.94;100.00;100822.41;6251210;28;20049;-77
2021/12/25 02:48:52;;;;;;;0.45;0.38;;;;;;;-3.93;100.00;100831.84;6250977;28;20485;-78
2021/12/25 02:51:55;;;;;;;0.10;0.10;;;;;;;-3.93;100.00;100817.28;6250637;28;20049;-77
2021/12/25 02:54:56;;;;;;;0.75;0.30;;;;;;;-4.04;100.00;100823.19;6250594;28;20072;-77
2021/12/25 02:57:58;;;;;;;0.10;0.10;;;;;;;-4.00;100.00;100832.63;6250357;28;20050;-77
2021/12/25 03:01:03;;;;;;;0.20;0.20;;;;;;;-3.97;100.00;100828.38;6250280;28;20052;-78
2021/12/25 03:04:05;;;;;;;0.10;0.10;;;;;;;-3.99;100.00;100836.94;6248131;28;20048;-78
2021/12/25 03:07:09;;;;;;;0.00;0.00;;;;;;;-4.02;100.00;100836.91;6229212;28;20049;-78
2021/12/25 03:10:11;;;;;;;0.10;0.10;;;;;;;-4.03;100.00;100842.88;6224944;28;20464;-78
2021/12/25 03:16:29;;;;;;;0.00;0.00;;;;;;;-4.13;100.00;100845.38;6239112;28;20045;-77
2021/12/25 03:19:32;;;;;;;0.32;0.32;;;;;;;-4.20;100.00;100848.72;6245529;28;20057;-78
2021/12/25 03:22:37;;;;;;;0.20;0.20;;;;;;;-4.18;100.00;100851.31;6249079;28;20053;-77
2021/12/25 03:25:38;;;;;;;0.30;0.10;;;;;;;-4.22;100.00;100853.00;6249522;28;20059;-78
2021/12/25 03:28:43;;;;;;;0.00;0.00;;;;;;;-4.26;100.00;100865.78;6249616;28;20056;-77
2021/12/25 03:31:46;;;;;;;0.00;0.00;;;;;;;-4.27;100.00;100858.91;6247793;28;20520;-78
2021/12/25 03:34:47;;;;;;;0.00;0.00;;;;;;;-4.28;100.00;100859.78;6244479;28;20135;-77
2021/12/25 03:37:50;;;;;;;0.25;0.20;;;;;;;-4.31;100.00;100867.44;6248591;28;20054;-77
2021/12/25 03:40:52;;;;;;;0.30;0.30;;;;;;;-4.31;100.00;100867.44;6248349;28;20049;-77
2021/12/25 03:43:53;;;;;;;0.13;0.13;;;;;;;-4.33;100.00;100864.88;6245993;28;20504;-77
2021/12/25 03:46:59;;;;;;;0.00;0.00;;;;;;;-4.35;100.00;100864.00;6245736;28;20048;-78
2021/12/25 03:53:37;;;;;;;0.20;0.20;;;;;;;-4.44;100.00;100875.03;6248927;28;20054;-78
2021/12/25 04:00:03;;;;;;;0.10;0.08;;;;;;;-4.44;100.00;100879.31;6245220;28;20057;-77
2021/12/25 04:03:09;;;;;;;0.20;0.20;;;;;;;-4.48;100.00;100880.97;6241646;28;20060;-78
2021/12/25 04:06:11;;;;;;;0.00;0.00;;;;;;;-4.51;100.00;100890.34;6223525;28;20056;-77
2021/12/25 04:09:23;;;;;;;0.10;0.10;;;;;;;-4.55;100.00;100888.56;6223456;28;20140;-77
2021/12/25 04:12:25;;;;;;;0.10;0.10;;;;;;;-4.56;100.00;100887.72;6223090;28;20472;-78
2021/12/25 04:15:26;;;;;;;0.20;0.20;;;;;;;-4.57;100.00;100890.28;6223069;28;20053;-76
2021/12/25 04:18:27;;;;;;;0.10;0.10;;;;;;;-4.57;100.00;100898.81;6222691;28;20049;-76
2021/12/25 04:21:29;;;;;;;0.00;0.00;;;;;;;-4.57;100.00;100897.97;6222738;28;20053;-78
2021/12/25 04:24:35;;;;;;;0.10;0.10;;;;;;;-4.56;100.00;100894.56;6222924;28;20077;-75
2021/12/25 04:27:38;;;;;;;0.10;0.10;;;;;;;-4.63;100.00;100884.25;6240998;28;20084;-76
2021/12/25 04:30:58;;;;;;;0.00;0.00;;;;;;;-4.60;100.00;100891.09;6246879;28;20045;-75
2021/12/25 05:03:54;;;;;;;0.10;0.10;;;;;;;-4.71;100.00;100892.69;6231846;28;20437;-79
2021/12/25 05:06:56;;;;;;;0.20;0.20;;;;;;;-4.73;100.00;100881.53;6222945;28;20050;-78
2021/12/25 05:09:58;;;;;;;0.00;0.00;;;;;;;-4.74;100.00;100884.97;6221996;28;20054;-77
2021/12/25 05:13:01;;;;;;;0.20;0.20;;;;;;;-4.81;100.00;100890.84;6222361;28;20065;-78
2021/12/25 05:16:03;;;;;;;0.20;0.20;;;;;;;-4.81;100.00;100888.28;6237365;28;20052;-77
2021/12/25 05:19:05;;;;;;;0.10;0.10;;;;;;;-4.90;100.00;100889.06;6246800;28;20076;-78
2021/12/25 05:22:06;;;;;;;0.10;0.10;;;;;;;-4.95;100.00;100888.13;6246203;28;20049;-77
2021/12/25 05:25:10;;;;;;;0.10;0.10;;;;;;;-4.90;100.00;100895.06;6247157;28;20497;-77
2021/12/25 05:28:14;;;;;;;2.83;0.10;;;;;;;-4.95;100.00;100891.56;6247038;28;20049;-78
2021/12/25 05:31:16;;;;;;;0.38;0.30;;;;;;;-4.97;100.00;100903.50;6247459;28;20132;-78
2021/12/25 05:34:18;;;;;;;0.60;0.22;;;;;;;-4.95;100.00;100908.63;6230940;28;20054;-77
2021/12/25 05:37:19;;;;;;;1.02;0.10;;;;;;;-4.97;100.00;100911.19;6221911;28;20049;-75
2021/12/25 05:40:22;;;;;;;0.98;0.98;;;;;;;-4.91;100.00;100907.81;6237503;28;20187;-75
2021/12/25 05:43:25;;;;;;;0.10;0.10;;;;;;;-4.89;100.00;100911.28;6246367;28;20053;-77
2021/12/25 05:46:27;;;;;;;0.22;0.22;;;;;;;-4.90;100.00;100919.81;6247141;28;20042;-77
2021/12/25 05:49:29;;;;;;;0.00;0.00;;;;;;;-4.94;100.00;100913.78;6247161;28;20186;-77
2021/12/25 05:52:30;;;;;;;0.00;0.00;;;;;;;-4.96;100.00;100910.31;6246789;28;20060;-78
2021/12/25 05:55:32;;;;;;;0.20;0.20;;;;;;;-4.99;100.00;100920.56;6247002;28;20508;-77
2021/12/25 05:58:35;;;;;;;0.10;0.10;;;;;;;-5.01;100.00;100922.22;6251241;28;20049;-78
2021/12/25 06:01:36;;;;;;;0.10;0.10;;;;;;;-5.12;100.00;100924.66;6251346;28;20046;-78
2021/12/25 06:04:38;;;;;;;0.65;0.20;;;;;;;-5.13;100.00;100930.63;6249820;28;20056;-77
2021/12/25 06:07:40;;;;;;;0.00;0.00;;;;;;;-5.13;100.00;100927.22;6250258;28;20175;-78
2021/12/25 06:10:42;;;;;;;0.15;0.15;;;;;;;-5.19;100.00;100933.09;6251124;28;20049;-78
2021/12/25 06:13:55;;;;;;;0.00;0.00;;;;;;;-5.21;100.00;100937.34;6250368;28;20136;-77
2021/12/25 06:16:57;;;;;;;0.00;0.00;;;;;;;-5.20;100.00;100941.63;6250165;28;20045;-75
2021/12/25 06:19:58;;;;;;;0.00;0.00;;;;;;;-5.16;100.00;100945.94;6249821;28;20522;-75
2021/12/25 06:23:00;;;;;;;0.00;0.00;;;;;;;-5.17;100.00;100948.50;6249981;28;20053;-78
2021/12/25 06:26:01;;;;;;;0.10;0.10;;;;;;;-5.17;100.00;100954.47;6249699;28;20413;-75
2021/12/25 06:29:04;;;;;;;0.80;0.20;;;;;;;-5.21;100.00;100962.09;6249883;28;20049;-76
2021/12/25 06:32:06;;;;;;;0.00;0.00;;;;;;;-5.22;100.00;100961.25;6249433;28;20049;-77
2021/12/25 06:35:08;;;;;;;0.10;0.10;;;;;;;-5.26;100.00;100962.03;6248103;28;20042;-76
2021/12/25 06:38:09;;;;;;;0.03;0.03;;;;;;;-5.27;100.00;100965.41;6249648;28;20049;-79
2021/12/25 06:41:12;;;;;;;0.10;0.10;;;;;;;-5.27;100.00;100964.56;6249644;28;20409;-76
2021/12/25 06:44:15;;;;;;;0.32;0.20;;;;;;;-5.32;100.00;100974.72;6249371;28;20072;-76
2021/12/25 06:47:16;;;;;;;0.22;0.17;;;;;;;-5.38;100.00;100972.09;6249535;28;20045;-76
2021/12/25 06:50:18;;;;;;;0.00;0.00;;;;;;;-5.34;100.00;100976.41;6249650;28;20137;-77
2021/12/25 06:53:20;;;;;;;0.00;0.00;;;;;;;-5.41;100.00;100975.44;6249178;28;20049;-77
2021/12/25 06:56:22;;;;;;;0.00;0.00;;;;;;;-5.52;100.00;100988.94;6249132;28;20054;-76
2021/12/25 06:59:24;;;;;;;0.10;0.10;;;;;;;-5.57;100.00;100990.56;6248986;28;20056;-77
2021/12/25 07:02:26;;;;;;;0.20;0.17;;;;;;;-5.65;100.00;100993.00;6249061;28;20053;-77
2021/12/25 07:05:27;;;;;;;0.00;0.00;;;;;;;-5.77;100.00;100990.22;6224926;28;20061;-76
2021/12/25 07:08:29;;;;;;;0.32;0.32;;;;;;;-5.75;100.00;100997.09;6224005;28;20046;-76
2021/12/25 07:11:30;;;;;;;0.73;0.20;;;;;;;-5.69;100.00;101001.47;6223936;28;20046;-76
2021/12/25 07:14:33;;;;;;;1.02;0.20;;;;;;;-5.69;100.00;101002.31;6233801;28;20069;-76
2021/12/25 07:17:34;;;;;;;0.40;0.40;;;;;;;-5.64;100.00;101007.50;6245737;28;20060;-76
2021/12/25 07:20:36;;;;;;;0.60;0.52;;;;;;;-5.64;100.00;100999.84;6248463;28;20512;-76
2021/12/25 07:23:37;;;;;;;0.20;0.20;;;;;;;-5.66;100.00;101010.06;6248545;28;20049;-76
2021/12/25 07:26:39;;;;;;;1.58;0.70;;;;;;;-5.69;100.00;101015.13;6248389;28;20045;-76
2021/12/25 07:29:42;;;;;;;1.52;1.02;;;;;;;-5.72;100.00;101017.66;6248275;28;20053;-75
2021/12/25 07:32:43;;;;;;;0.32;0.32;;;;;;;-5.78;100.00;101022.63;6248126;28;20057;-76
2021/12/25 07:35:45;;;;;;;0.85;0.68;;;;;;;-5.74;100.00;101018.44;6225794;28;20540;-76
2021/12/25 07:38:46;;;;;;;0.65;0.30;;;;;;;-5.74;100.00;101024.41;6223395;28;20058;-76
2021/12/25 07:41:48;;;;;;;0.90;0.55;;;;;;;-5.77;100.00;101023.50;6243476;28;20049;-77
2021/12/25 07:44:54;;;;;;;2.40;1.75;;;;;;;-5.76;100.00;101031.22;6247759;28;20053;-76
2021/12/25 07:47:59;;;;;;;1.23;1.00;;;;;;;-5.85;100.00;101032.75;6248052;28;20088;-77
2021/12/25 07:51:02;;;;;;;0.20;0.20;;;;;;;-5.83;100.00;101036.19;6247861;28;20085;-76
2021/12/25 07:54:04;;;;;;;0.65;0.38;;;;;;;-5.83;100.00;101039.59;6247919;28;20081;-75
2021/12/25 07:57:05;;;;;;;0.10;0.10;;;;;;;-5.86;100.00;101036.97;6232260;28;20057;-77
2021/12/25 08:00:11;;;;;;;0.25;0.25;;;;;;;-5.87;100.00;101040.38;6222911;28;20420;-76
2021/12/25 08:03:13;;;;;;;0.00;0.00;;;;;;;-5.83;100.00;101044.72;6223058;28;20057;-76
2021/12/25 08:06:14;;;;;;;0.10;0.10;;;;;;;-5.80;100.00;101042.22;6222974;28;20046;-77
2021/12/25 08:09:18;;;;;;;1.30;0.50;;;;;;;-5.81;100.00;101044.75;6223216;28;20061;-77
2021/12/25 08:12:19;;;;;;;0.10;0.10;;;;;;;-5.83;100.00;101049.84;6222700;28;20192;-76
2021/12/25 08:15:24;;;;;;;0.45;0.32;;;;;;;-5.88;100.00;101054.88;6223133;28;20519;-76
2021/12/25 08:18:25;;;;;;;0.52;0.20;;;;;;;-5.87;100.00;101055.75;6221074;28;20056;-76
2021/12/25 08:21:27;;;;;;;0.55;0.40;;;;;;;-5.84;100.00;101063.47;6220968;28;20054;-77
2021/12/25 08:24:28;;;;;;;0.10;0.10;;;;;;;-5.80;100.00;101062.69;6221564;28;20053;-74
2021/12/25 08:27:29;;;;;;;0.13;0.13;;;;;;;-5.82;100.00;101066.91;6221965;28;20509;-77
2021/12/25 08:30:32;;;;;;;0.10;0.03;;;;;;;-5.82;100.00;101071.19;6221395;28;20425;-77
2021/12/25 08:33:34;;;;;;;0.03;0.03;;;;;;;-5.82;100.00;101078.84;6228293;28;20050;-77
2021/12/25 08:36:35;;;;;;;1.38;0.30;;;;;;;-5.84;100.00;101078.84;6247052;28;20053;-77
2021/12/25 08:39:37;;;;;;;0.75;0.22;;;;;;;-5.97;100.00;101079.47;6246474;28;20053;-77
2021/12/25 08:42:45;;;;;;;0.32;0.28;;;;;;;-5.95;100.00;101077.78;6241264;28;20049;-76
2021/12/25 08:45:59;;;;;;;0.98;0.70;;;;;;;-5.88;100.00;101080.47;6222742;28;20054;-78
2021/12/25 08:49:01;;;;;;;1.75;1.63;;;;;;;-5.80;100.00;101080.63;6222374;28;20136;-77
2021/12/25 08:52:06;;;;;;;0.70;0.70;;;;;;;-5.78;100.00;101089.16;6222024;28;20050;-77
2021/12/25 08:55:08;;;;;;;0.55;0.43;;;;;;;-5.78;100.00;101096.84;6222353;28;20041;-77
2021/12/25 08:58:09;;;;;;;0.80;0.80;;;;;;;-5.77;100.00;101097.72;6227227;28;20050;-77
2021/12/25 09:01:12;;;;;;;0.25;0.25;;;;;;;-5.81;100.00;101103.59;6245452;28;20046;-78
2021/12/25 09:04:13;;;;;;;0.05;0.05;;;;;;;-5.77;100.00;101106.25;6242260;28;20144;-75
2021/12/25 09:07:15;;;;;;;0.30;0.30;;;;;;;-5.68;100.00;101109.00;6234246;28;20053;-76
2021/12/25 09:10:18;;;;;;;0.20;0.20;;;;;;;-5.62;100.00;101111.66;6228410;28;20045;-77
2021/12/25 09:13:19;;;;;;;0.77;0.65;;;;;;;-5.61;100.00;101109.97;6235602;28;20084;-76
2021/12/25 09:16:22;;;;;;;0.10;0.10;;;;;;;-5.61;100.00;101112.53;6229000;28;20516;-76
2021/12/25 09:19:23;;;;;;;0.43;0.43;;;;;;;-5.57;100.00;101108.34;6234583;28;20046;-77
2021/12/25 09:22:25;;;;;;;0.20;0.20;;;;;;;-5.51;100.00;101111.00;6238274;28;20081;-77
2021/12/25 09:25:26;;;;;;;0.20;0.20;;;;;;;-5.51;100.00;101118.69;6233355;28;20041;-76
2021/12/25 09:28:28;;;;;;;0.00;0.00;;;;;;;-5.50;100.00;101117.84;6234094;28;20093;-76
2021/12/25 09:31:31;;;;;;;1.88;0.98;;;;;;;-5.49;100.00;101120.44;6235999;28;20535;-76
2021/12/25 09:34:32;;;;;;;1.25;0.30;;;;;;;-5.41;100.00;101126.53;6232471;28;20515;-78
2021/12/25 09:37:34;;;;;;;0.15;0.15;;;;;;;-5.39;100.00;101132.56;6238261;28;20050;-76
2021/12/25 09:40:36;;;;;;;0.43;0.35;;;;;;;-5.32;100.00;101130.09;6239782;28;20515;-76
2021/12/25 09:43:39;;;;;;;0.05;0.05;;;;;;;-5.30;100.00;101131.00;6240788;28;20067;-76
2021/12/25 09:46:42;;;;;;;0.43;0.28;;;;;;;-5.26;100.00;101128.53;6236494;28;20049;-76
2021/12/25 09:49:43;;;;;;;1.55;0.77;;;;;;;-5.16;100.00;101125.28;6237934;28;20456;-77
2021/12/25 09:52:45;;;;;;;2.10;0.65;;;;;;;-5.07;100.00;101124.56;6238594;28;20050;-77
2021/12/25 09:55:47;;;;;;;2.92;0.75;;;;;;;-5.01;100.00;101121.22;6239950;28;20053;-76
2021/12/25 09:58:49;;;;;;;0.47;0.45;;;;;;;-4.98;100.00;101126.41;6238858;28;20057;-75
2021/12/25 10:01:54;;;;;;;0.00;0.00;;;;;;;-4.93;100.00;101127.34;6236691;28;20046;-76
2021/12/25 10:04:57;;;;;;;0.65;0.57;;;;;;;-4.88;100.00;101130.84;6236864;28;20081;-77
2021/12/25 10:08:04;;;;;;;0.13;0.10;;;;;;;-4.83;100.00;101136.91;6241386;28;20049;-77
2021/12/25 10:11:05;;;;;;;0.50;0.22;;;;;;;-4.81;100.00;101134.34;6226012;28;20050;-78
2021/12/25 10:14:07;;;;;;;0.88;0.57;;;;;;;-4.77;100.00;101133.56;6225581;28;20489;-77
2021/12/25 10:17:18;;;;;;;0.00;0.00;;;;;;;-4.64;100.00;101132.91;6225634;28;20037;-77
2021/12/25 10:20:23;;;;;;;0.00;0.00;;;;;;;-4.65;100.00;101118.38;6230955;28;20042;-76
2021/12/25 10:23:29;;;;;;;3.15;0.73;;;;;;;-4.61;100.00;101131.25;6239599;28;20072;-77
2021/12/25 10:26:31;;;;;;;0.10;0.10;;;;;;;-4.46;100.00;101115.22;6237787;28;20061;-76
2021/12/25 10:29:32;;;;;;;0.10;0.10;;;;;;;-4.51;100.00;101118.56;6238414;28;20056;-80
2021/12/25 10:32:39;;;;;;;1.35;0.73;;;;;;;-4.44;100.00;101118.69;6238327;28;20045;-76
2021/12/25 10:35:40;;;;;;;0.20;0.20;;;;;;;-4.45;100.00;101124.66;6239094;28;20045;-76
2021/12/25 10:38:58;;;;;;;0.25;0.25;;;;;;;-4.36;100.00;101118.75;6235852;28;20402;-76
2021/12/25 10:42:03;;;;;;;2.28;0.35;;;;;;;-4.28;100.00;101106.06;6242834;28;20050;-77
2021/12/25 10:45:14;;;;;;;0.00;0.00;;;;;;;-4.22;100.00;101112.13;6249880;28;20420;-77
2021/12/25 10:48:16;;;;;;;0.00;0.00;;;;;;;-4.26;100.00;101114.66;6249797;28;20045;-77
2021/12/25 10:51:26;;;;;;;0.10;0.10;;;;;;;-4.11;100.00;101100.28;6249723;28;20053;-76
2021/12/25 10:54:38;;;;;;;0.00;0.00;;;;;;;-4.07;100.00;101100.34;6249583;28;20049;-77
2021/12/25 10:57:43;;;;;;;0.10;0.10;;;;;;;-4.14;100.00;101102.81;6249682;28;20095;-77
2021/12/25 11:00:50;;;;;;;0.00;0.00;;;;;;;-4.13;100.00;101099.41;6248942;28;20416;-77
2021/12/25 11:03:52;;;;;;;0.30;0.20;;;;;;;-4.04;100.00;101102.91;6244175;28;20049;-77
2021/12/25 11:06:55;;;;;;;0.40;0.30;;;;;;;-3.99;100.00;101103.88;6237514;28;20540;-77
2021/12/25 11:10:07;;;;;;;0.10;0.10;;;;;;;-3.86;100.00;101093.75;6248082;28;20053;-77
2021/12/25 11:13:17;;;;;;;0.20;0.20;;;;;;;-3.96;100.00;101094.47;6243246;28;20049;-76
2021/12/25 11:16:23;;;;;;;1.75;0.43;;;;;;;-3.92;100.00;101106.50;6238445;28;20042;-77
2021/12/25 11:19:34;;;;;;;0.10;0.10;;;;;;;-3.71;100.00;101107.59;6239606;28;20038;-79
2021/12/25 11:22:47;;;;;;;0.90;0.43;;;;;;;-3.75;100.00;101116.09;6236857;28;20456;-77
2021/12/25 11:25:49;;;;;;;2.08;0.68;;;;;;;-3.68;100.00;101111.06;6229287;28;20527;-77
2021/12/25 11:28:50;;;;;;;0.57;0.47;;;;;;;-3.54;100.00;101106.06;6224985;28;20050;-77
2021/12/25 11:31:53;;;;;;;0.10;0.10;;;;;;;-3.47;100.00;101104.41;6223758;28;20046;-77
2021/12/25 11:34:58;;;;;;;0.20;0.20;;;;;;;-3.47;100.00;101096.69;6224060;28;20050;-72
2021/12/25 11:37:59;;;;;;;0.20;0.20;;;;;;;-3.52;100.00;101098.38;6239425;28;20052;-73
2021/12/25 11:41:06;;;;;;;0.47;0.20;;;;;;;-3.50;100.00;101104.38;6247930;28;20054;-77
2021/12/25 11:44:29;;;;;;;0.17;0.17;;;;;;;-3.62;100.00;101103.41;6246665;28;20057;-75
2021/12/25 11:47:34;;;;;;;0.98;0.43;;;;;;;-3.63;100.00;101103.41;6232404;28;20045;-77
2021/12/25 11:50:41;;;;;;;5.65;0.60;;;;;;;-3.61;100.00;101092.28;6241379;28;20050;-78
2021/12/25 11:53:53;;;;;;;0.10;0.10;;;;;;;-3.57;100.00;101083.75;6231146;28;20053;-75
2021/12/25 11:57:11;;;;;;;0.10;0.10;;;;;;;-3.40;100.00;101094.22;6243375;28;20420;-76
2021/12/25 12:00:12;;;;;;;0.10;0.10;;;;;;;-3.29;100.00;101089.16;6240698;28;20057;-75
2021/12/25 12:03:41;;;;;;;0.25;0.20;;;;;;;-3.20;98.32;101086.66;6246558;28;20057;-75
2021/12/25 12:07:04;;;;;;;0.28;0.22;;;;;;;-3.13;98.82;101090.16;6245761;28;20076;-75
2021/12/25 12:10:05;;;;;;;0.15;0.15;;;;;;;-3.02;100.00;101088.53;6239809;28;20045;-76
2021/12/25 12:13:19;;;;;;;3.40;0.38;;;;;;;-2.87;99.58;101091.19;6245253;28;20446;-76
2021/12/25 12:16:37;;;;;;;0.00;0.00;;;;;;;-2.79;97.31;101074.97;6230069;28;20050;-76
2021/12/25 12:19:43;;;;;;;0.10;0.10;;;;;;;-2.78;96.80;101092.09;6232737;28;20042;-75
2021/12/25 12:23:18;;;;;;;0.20;0.20;;;;;;;-2.74;97.53;101081.84;6235515;28;20049;-77
2021/12/25 12:26:53;;;;;;;0.40;0.30;;;;;;;-2.66;97.21;101084.47;6235981;28;20427;-73
2021/12/25 12:29:54;;;;;;;0.10;0.10;;;;;;;-2.78;96.70;101082.69;6231018;28;20133;-75
2021/12/25 12:32:56;;;;;;;0.10;0.10;;;;;;;-2.81;97.06;101080.97;6232929;28;20053;-76
2021/12/25 12:35:57;;;;;;;0.10;0.10;;;;;;;-3.08;97.40;101084.19;6229302;28;20056;-75
2021/12/25 12:39:18;;;;;;;0.13;0.13;;;;;;;-3.20;97.19;101073.81;6218657;28;20049;-75
2021/12/25 12:42:20;;;;;;;0.00;0.00;;;;;;;-3.27;98.22;101072.06;6218548;28;20050;-75
2021/12/25 12:45:24;;;;;;;0.63;0.10;;;;;;;-3.32;97.08;101068.56;6219842;28;20046;-75
2021/12/25 12:48:26;;;;;;;0.75;0.70;;;;;;;-3.47;97.67;101079.56;6221225;28;20042;-75
2021/12/25 12:51:27;;;;;;;0.35;0.25;;;;;;;-3.54;97.91;101076.91;6222158;28;20061;-75
2021/12/25 12:54:44;;;;;;;0.10;0.10;;;;;;;-3.60;98.65;101076.03;6222095;28;20052;-75
2021/12/25 12:57:46;;;;;;;4.57;0.68;;;;;;;-3.58;100.00;101073.50;6222130;28;20050;-75
2021/12/25 13:00:50;;;;;;;0.10;0.10;;;;;;;-3.63;100.00;101086.28;6221717;28;20053;-75
2021/12/25 13:03:57;;;;;;;1.35;0.70;;;;;;;-3.66;100.00;101087.94;6222211;28;20050;-75
2021/12/25 13:06:58;;;;;;;0.10;0.10;;;;;;;-3.63;100.00;101088.84;6242372;28;20428;-75
2021/12/25 13:10:11;;;;;;;0.10;0.10;;;;;;;-3.60;100.00;101096.56;6251364;28;20613;-75
2021/12/25 13:13:14;;;;;;;0.20;0.20;;;;;;;-3.64;100.00;101088.81;6251386;28;20062;-75
2021/12/25 13:16:17;;;;;;;0.10;0.10;;;;;;;-3.54;100.00;101089.75;6251568;28;20053;-75
2021/12/25 13:19:20;;;;;;;0.20;0.20;;;;;;;-3.64;100.00;101097.38;6251055;28;20080;-75
2021/12/25 13:22:22;;;;;;;0.20;0.20;;;;;;;-3.62;100.00;101089.72;6251130;28;20045;-75
2021/12/25 13:25:24;;;;;;;0.10;0.10;;;;;;;-3.73;100.00;101101.56;6251406;28;20092;-74
2021/12/25 13:28:28;;;;;;;0.98;0.50;;;;;;;-3.71;99.94;101103.31;6251169;28;20061;-75
2021/12/25 13:31:35;;;;;;;0.10;0.10;;;;;;;-3.76;100.00;101099.84;6250806;28;20060;-75
2021/12/25 13:34:38;;;;;;;1.10;0.73;;;;;;;-3.74;100.00;101104.97;6245923;28;20046;-75
2021/12/25 13:37:40;;;;;;;0.20;0.20;;;;;;;-3.77;100.00;101102.38;6226316;28;20417;-75
2021/12/25 13:40:51;;;;;;;0.00;0.00;;;;;;;-3.75;100.00;101099.00;6225947;28;20046;-75
2021/12/25 13:44:03;;;;;;;1.35;0.52;;;;;;;-3.75;100.00;101096.41;6226526;28;20132;-78
2021/12/25 13:47:15;;;;;;;0.28;0.28;;;;;;;-3.72;100.00;101109.31;6226167;28;20060;-75
2021/12/25 13:50:16;;;;;;;0.15;0.15;;;;;;;-3.72;100.00;101106.72;6225938;28;20053;-76
2021/12/25 13:53:18;;;;;;;0.38;0.38;;;;;;;-3.77;100.00;101097.22;6226046;28;20516;-76
2021/12/25 13:56:22;;;;;;;0.40;0.15;;;;;;;-3.78;100.00;101100.66;6227683;28;20465;-75
2021/12/25 13:59:24;;;;;;;0.47;0.30;;;;;;;-3.78;100.00;101105.78;6249178;28;20099;-74
2021/12/25 14:02:28;;;;;;;0.28;0.20;;;;;;;-3.78;100.00;101108.34;6229215;28;20041;-73
2021/12/25 14:05:36;;;;;;;1.02;0.20;;;;;;;-3.77;100.00;101113.53;6235830;28;20489;-78
2021/12/25 14:08:37;;;;;;;0.13;0.13;;;;;;;-3.75;100.00;101110.97;6246944;28;20516;-78
2021/12/25 14:11:48;;;;;;;0.30;0.30;;;;;;;-3.70;100.00;101123.00;6250155;28;20728;-80
2021/12/25 14:14:51;;;;;;;0.25;0.25;;;;;;;-3.80;100.00;101112.63;6241679;28;20049;-78
2021/12/25 14:17:52;;;;;;;0.10;0.10;;;;;;;-3.85;100.00;101115.16;6233617;28;20054;-77
2021/12/25 14:20:53;;;;;;;0.10;0.10;;;;;;;-3.88;100.00;101109.97;6238209;28;20061;-78
2021/12/25 14:24:04;;;;;;;0.10;0.10;;;;;;;-3.94;100.00;101112.47;6234009;28;20046;-78
2021/12/25 14:27:08;;;;;;;0.30;0.28;;;;;;;-3.95;100.00;101111.63;6232638;28;20053;-77
2021/12/25 14:30:13;;;;;;;0.10;0.10;;;;;;;-3.94;100.00;101121.03;6232288;28;20056;-77
2021/12/25 14:33:16;;;;;;;0.35;0.22;;;;;;;-3.98;100.00;101120.97;6235802;28;20049;-77
2021/12/25 14:36:18;;;;;;;0.20;0.20;;;;;;;-4.02;100.00;101116.66;6237398;28;20076;-78
2021/12/25 14:39:20;;;;;;;0.30;0.30;;;;;;;-4.03;100.00;101118.34;6244835;28;20041;-78
2021/12/25 14:42:35;;;;;;;1.30;0.85;;;;;;;-4.10;100.00;101113.97;6235851;28;20049;-79
2021/12/25 14:45:43;;;;;;;1.55;0.57;;;;;;;-4.12;100.00;101120.81;6250302;28;20053;-79
2021/12/25 14:48:44;;;;;;;2.65;1.33;;;;;;;-4.14;100.00;101119.91;6239662;28;20045;-79
2021/12/25 14:51:47;;;;;;;23.75;4.13;;;;;;;-4.17;100.00;101125.88;6225706;28;20057;-78
2021/12/25 14:54:48;;;;;;;8.65;2.88;;;;;;;-4.18;100.00;101118.16;6232267;28;20057;-79